createdAt,value
2018-08-10T00:00:47.843Z,99.90
2018-08-10T00:03:17.374Z,99.90
2018-08-10T00:05:46.678Z,99.90
2018-08-10T00:08:16.028Z,99.90
2018-08-10T00:10:45.317Z,99.90
2018-08-10T00:13:14.670Z,99.90
2018-08-10T00:15:44.099Z,99.90
2018-08-10T00:18:13.416Z,99.90
2018-08-10T00:20:42.817Z,99.90
2018-08-10T00:23:12.091Z,99.90
2018-08-10T00:25:41.454Z,99.90
2018-08-10T00:28:10.778Z,99.90
2018-08-10T00:30:40.082Z,99.90
2018-08-10T00:33:09.440Z,99.90
2018-08-10T00:35:38.863Z,99.90
2018-08-10T00:38:08.189Z,99.90
2018-08-10T00:40:37.456Z,99.90
2018-08-10T00:43:06.796Z,99.90
2018-08-10T00:45:36.067Z,99.90
2018-08-10T00:48:05.565Z,99.90
2018-08-10T00:50:34.868Z,99.90
2018-08-10T00:53:04.255Z,99.90
2018-08-10T00:55:33.586Z,99.90
2018-08-10T00:58:02.956Z,99.90
2018-08-10T01:00:32.305Z,99.90
2018-08-10T01:03:01.553Z,99.90
2018-08-10T01:05:30.889Z,99.90
2018-08-10T01:08:00.259Z,99.90
2018-08-10T01:10:29.476Z,99.90
2018-08-10T01:12:58.776Z,99.90
2018-08-10T01:15:28.094Z,99.90
2018-08-10T01:17:57.354Z,99.90
2018-08-10T01:20:26.673Z,99.90
2018-08-10T01:23:01.186Z,99.90
2018-08-10T01:25:30.581Z,99.90
2018-08-10T01:28:01.880Z,99.90
2018-08-10T01:30:32.350Z,99.90
2018-08-10T01:33:02.101Z,99.90
2018-08-10T01:35:31.905Z,99.90
2018-08-10T01:38:02.502Z,99.90
2018-08-10T01:40:31.877Z,99.90
2018-08-10T01:43:01.163Z,99.90
2018-08-10T01:45:30.537Z,99.90
2018-08-10T01:47:59.786Z,99.90
2018-08-10T01:50:29.172Z,99.90
2018-08-10T01:52:58.443Z,99.90
2018-08-10T01:55:27.702Z,99.90
2018-08-10T01:57:57.024Z,99.90
2018-08-10T02:00:26.363Z,99.90
2018-08-10T02:02:55.784Z,99.90
2018-08-10T02:05:25.099Z,99.90
2018-08-10T02:07:54.479Z,99.90
2018-08-10T02:10:23.898Z,99.90
2018-08-10T02:12:56.802Z,99.90
2018-08-10T02:15:26.200Z,99.90
2018-08-10T02:17:55.531Z,99.90
2018-08-10T02:20:25.743Z,99.90
2018-08-10T02:22:55.177Z,99.90
2018-08-10T02:25:24.452Z,99.90
2018-08-10T02:27:53.769Z,99.90
2018-08-10T02:30:23.406Z,99.90
2018-08-10T02:32:53.097Z,99.90
2018-08-10T02:35:22.498Z,99.90
2018-08-10T02:37:51.809Z,99.90
2018-08-10T02:40:22.387Z,99.90
2018-08-10T02:42:52.574Z,99.90
2018-08-10T02:45:21.934Z,99.90
2018-08-10T02:47:51.812Z,99.90
2018-08-10T02:50:21.241Z,99.90
2018-08-10T02:52:50.527Z,99.90
2018-08-10T02:55:19.911Z,99.90
2018-08-10T02:57:49.180Z,99.90
2018-08-10T03:00:18.857Z,99.90
2018-08-10T03:02:48.239Z,99.90
2018-08-10T03:05:17.595Z,99.90
2018-08-10T03:07:46.987Z,99.90
2018-08-10T03:10:16.311Z,99.90
2018-08-10T03:12:45.590Z,99.90
2018-08-10T03:15:16.878Z,99.90
2018-08-10T03:17:46.648Z,99.90
2018-08-10T03:20:16.043Z,99.90
2018-08-10T03:22:45.363Z,99.90
2018-08-10T03:25:15.395Z,99.90
2018-08-10T03:27:44.823Z,99.90
2018-08-10T03:30:15.132Z,99.90
2018-08-10T03:32:44.515Z,99.90
2018-08-10T03:35:14.245Z,99.90
2018-08-10T03:37:43.667Z,99.90
2018-08-10T03:40:15.251Z,99.90
2018-08-10T03:42:45.228Z,99.90
2018-08-10T03:45:15.614Z,99.90
2018-08-10T03:47:45.006Z,99.90
2018-08-10T03:50:14.937Z,99.90
2018-08-10T03:52:44.754Z,99.90
2018-08-10T03:55:14.198Z,99.90
2018-08-10T03:57:43.828Z,99.90
2018-08-10T04:00:14.768Z,99.90
2018-08-10T04:02:45.046Z,99.90
2018-08-10T04:05:14.590Z,99.90
2018-08-10T04:07:43.918Z,99.90
2018-08-10T04:10:13.255Z,99.90
2018-08-10T04:12:42.536Z,99.90
2018-08-10T04:15:14.324Z,99.90
2018-08-10T04:17:43.773Z,99.90
2018-08-10T04:20:13.052Z,99.90
2018-08-10T04:22:42.472Z,99.00
2018-08-10T04:25:11.823Z,97.90
2018-08-10T04:27:41.195Z,96.50
2018-08-10T04:30:11.728Z,96.60
2018-08-10T04:32:41.082Z,95.30
2018-08-10T04:35:10.515Z,95.40
2018-08-10T04:37:39.863Z,94.30
2018-08-10T04:40:10.814Z,94.10
2018-08-10T04:42:40.271Z,92.00
2018-08-10T04:45:10.073Z,92.40
2018-08-10T04:47:43.491Z,92.40
2018-08-10T04:50:12.740Z,92.50
2018-08-10T04:52:42.385Z,92.50
2018-08-10T04:55:12.074Z,91.30
2018-08-10T04:57:41.803Z,91.50
2018-08-10T05:00:13.874Z,91.30
2018-08-10T05:02:43.170Z,90.90
2018-08-10T05:05:12.606Z,90.60
2018-08-10T05:07:42.782Z,90.70
2018-08-10T05:10:12.106Z,90.00
2018-08-10T05:12:41.597Z,90.10
2018-08-10T05:15:12.052Z,90.00
2018-08-10T05:17:41.412Z,89.20
2018-08-10T05:20:11.732Z,87.90
2018-08-10T05:22:41.821Z,78.20
2018-08-10T05:25:11.127Z,72.40
2018-08-10T05:27:40.402Z,67.10
2018-08-10T05:30:10.570Z,64.10
2018-08-10T05:32:40.637Z,64.10
2018-08-10T05:35:10.612Z,69.70
2018-08-10T05:37:40.250Z,76.40
2018-08-10T05:40:10.663Z,78.00
2018-08-10T05:42:39.922Z,79.40
2018-08-10T05:45:09.254Z,80.20
2018-08-10T05:47:38.610Z,80.90
2018-08-10T05:50:08.144Z,81.70
2018-08-10T05:52:37.489Z,81.70
2018-08-10T05:55:07.164Z,81.40
2018-08-10T05:57:37.003Z,81.10
2018-08-10T06:00:07.521Z,81.30
2018-08-10T06:02:36.910Z,82.50
2018-08-10T06:05:06.400Z,81.70
2018-08-10T06:07:35.992Z,80.80
2018-08-10T06:10:06.589Z,80.10
2018-08-10T06:12:35.836Z,79.90
2018-08-10T06:15:05.391Z,81.00
2018-08-10T06:17:34.746Z,82.20
2018-08-10T06:20:04.132Z,80.20
2018-08-10T06:22:34.013Z,79.30
2018-08-10T06:25:03.433Z,80.40
2018-08-10T06:27:32.711Z,79.80
2018-08-10T06:30:02.275Z,80.00
2018-08-10T06:32:31.569Z,79.80
2018-08-10T06:35:00.920Z,79.10
2018-08-10T06:37:30.222Z,80.80
2018-08-10T06:39:59.505Z,80.10
2018-08-10T06:42:28.742Z,79.10
2018-08-10T06:44:58.012Z,79.00
2018-08-10T06:47:27.706Z,81.40
2018-08-10T06:49:56.988Z,80.30
2018-08-10T06:52:26.249Z,79.10
2018-08-10T06:54:55.536Z,78.20
2018-08-10T06:57:24.755Z,78.20
2018-08-10T06:59:54.098Z,77.70
2018-08-10T07:02:23.651Z,78.60
2018-08-10T07:04:52.958Z,77.90
2018-08-10T07:07:22.275Z,78.50
2018-08-10T07:09:51.508Z,77.30
2018-08-10T07:12:20.828Z,77.80
2018-08-10T07:14:50.067Z,77.70
2018-08-10T07:17:19.339Z,77.30
2018-08-10T07:19:48.665Z,77.30
2018-08-10T07:22:17.917Z,75.90
2018-08-10T07:24:47.223Z,74.70
2018-08-10T07:27:16.481Z,75.50
2018-08-10T07:29:45.914Z,74.00
2018-08-10T07:32:15.298Z,74.80
2018-08-10T07:34:44.604Z,73.60
2018-08-10T07:37:13.952Z,73.70
2018-08-10T07:39:43.253Z,74.60
2018-08-10T07:42:12.598Z,73.90
2018-08-10T07:44:44.881Z,73.10
2018-08-10T07:47:14.236Z,73.60
2018-08-10T07:49:43.595Z,74.20
2018-08-10T07:52:12.839Z,73.80
2018-08-10T07:54:42.138Z,73.80
2018-08-10T07:57:11.466Z,74.70
2018-08-10T07:59:40.778Z,73.80
2018-08-10T08:02:10.213Z,73.70
2018-08-10T08:04:39.490Z,73.50
2018-08-10T08:07:08.852Z,73.60
2018-08-10T08:09:38.162Z,73.70
2018-08-10T08:12:07.409Z,73.70
2018-08-10T08:14:36.726Z,73.00
2018-08-10T08:17:06.097Z,73.10
2018-08-10T08:19:35.516Z,72.90
2018-08-10T08:22:08.505Z,72.30
2018-08-10T08:24:38.420Z,72.60
2018-08-10T08:27:07.879Z,72.60
2018-08-10T08:29:37.628Z,71.90
2018-08-10T08:32:07.283Z,71.90
2018-08-10T08:34:36.669Z,72.00
2018-08-10T08:37:06.489Z,72.30
2018-08-10T08:40:30.129Z,72.40
2018-08-10T08:42:59.483Z,72.60
2018-08-10T08:45:52.974Z,72.00
2018-08-10T08:48:22.426Z,72.20
2018-08-10T08:50:53.291Z,72.60
2018-08-10T08:53:22.915Z,73.30
2018-08-10T08:55:55.863Z,72.80
2018-08-10T08:58:25.674Z,72.40
2018-08-10T09:00:55.069Z,72.20
2018-08-10T09:03:35.803Z,72.50
2018-08-10T09:06:05.395Z,72.60
2018-08-10T09:08:34.642Z,72.60
2018-08-10T09:11:05.418Z,72.60
2018-08-10T09:13:45.504Z,73.20
2018-08-10T09:16:14.822Z,72.40
2018-08-10T09:18:44.228Z,71.80
2018-08-10T09:21:13.566Z,70.30
2018-08-10T09:23:42.895Z,69.60
2018-08-10T09:26:12.285Z,71.50
2018-08-10T09:28:41.614Z,70.50
2018-08-10T09:31:10.924Z,69.70
2018-08-10T09:33:40.284Z,68.40
2018-08-10T09:36:09.676Z,66.40
2018-08-10T09:38:39.024Z,65.50
2018-08-10T09:41:08.418Z,65.30
2018-08-10T09:43:37.815Z,64.60
2018-08-10T09:46:07.193Z,64.90
2018-08-10T09:48:36.460Z,63.60
2018-08-10T09:51:05.900Z,63.50
2018-08-10T09:53:36.263Z,61.50
2018-08-10T09:56:06.590Z,60.00
2018-08-10T09:58:36.630Z,59.10
2018-08-10T10:01:11.055Z,58.60
2018-08-10T10:03:40.463Z,57.30
2018-08-10T10:06:09.826Z,58.40
2018-08-10T10:08:39.163Z,56.50
2018-08-10T10:11:08.517Z,55.50
2018-08-10T10:13:37.791Z,56.00
2018-08-10T10:16:07.216Z,55.70
2018-08-10T10:18:36.498Z,55.70
2018-08-10T10:21:05.912Z,55.40
2018-08-10T10:23:35.164Z,56.00
2018-08-10T10:26:05.605Z,55.50
2018-08-10T10:28:35.056Z,54.60
2018-08-10T10:31:04.491Z,55.00
2018-08-10T10:33:34.634Z,54.60
2018-08-10T10:36:03.940Z,53.70
2018-08-10T10:38:33.251Z,54.70
2018-08-10T10:41:02.587Z,55.90
2018-08-10T10:43:31.938Z,55.70
2018-08-10T10:46:01.277Z,56.10
2018-08-10T10:48:30.552Z,55.90
2018-08-10T10:51:02.318Z,55.90
2018-08-10T10:53:31.682Z,56.30
2018-08-10T10:56:01.933Z,55.80
2018-08-10T10:58:31.512Z,55.40
2018-08-10T11:01:00.883Z,54.30
2018-08-10T11:03:30.237Z,54.50
2018-08-10T11:05:59.596Z,54.20
2018-08-10T11:08:28.868Z,52.70
2018-08-10T11:10:58.164Z,53.90
2018-08-10T11:13:27.499Z,54.10
2018-08-10T11:15:56.966Z,53.50
2018-08-10T11:18:26.316Z,52.00
2018-08-10T11:20:55.658Z,52.10
2018-08-10T11:23:25.008Z,52.90
2018-08-10T11:25:54.649Z,53.70
2018-08-10T11:28:24.043Z,55.60
2018-08-10T11:30:53.352Z,55.50
2018-08-10T11:33:22.738Z,55.60
2018-08-10T11:35:51.984Z,56.50
2018-08-10T11:38:21.282Z,57.10
2018-08-10T11:40:50.689Z,57.90
2018-08-10T11:43:20.913Z,58.60
2018-08-10T11:45:50.348Z,59.40
2018-08-10T11:48:19.677Z,60.20
2018-08-10T11:50:49.025Z,60.80
2018-08-10T11:53:18.319Z,61.10
2018-08-10T11:55:47.616Z,61.00
2018-08-10T11:58:16.879Z,60.50
2018-08-10T12:00:46.312Z,60.50
2018-08-10T12:03:15.644Z,59.80
2018-08-10T12:05:44.977Z,59.50
2018-08-10T12:08:14.329Z,60.00
2018-08-10T12:10:43.666Z,59.40
2018-08-10T12:13:13.019Z,59.30
2018-08-10T12:15:42.622Z,59.60
2018-08-10T12:18:11.945Z,59.80
2018-08-10T12:20:41.221Z,59.70
2018-08-10T12:23:10.621Z,60.10
2018-08-10T12:25:39.944Z,61.00
2018-08-10T12:28:09.402Z,60.80
2018-08-10T12:30:38.722Z,59.80
2018-08-10T12:33:08.210Z,59.40
2018-08-10T12:35:37.616Z,60.80
2018-08-10T12:38:07.037Z,61.00
2018-08-10T12:40:36.376Z,60.90
2018-08-10T12:43:05.757Z,61.60
2018-08-10T12:45:35.194Z,61.70
2018-08-10T12:48:06.900Z,61.50
2018-08-10T12:50:36.378Z,60.00
2018-08-10T12:53:05.739Z,59.80
2018-08-10T12:55:35.079Z,59.70
2018-08-10T12:58:05.590Z,61.00
2018-08-10T13:00:34.971Z,60.40
2018-08-10T13:03:04.518Z,60.30
2018-08-10T13:05:33.799Z,60.00
2018-08-10T13:08:03.994Z,59.80
2018-08-10T13:10:33.471Z,60.40
2018-08-10T13:13:02.853Z,61.30
2018-08-10T13:15:32.106Z,62.00
2018-08-10T13:18:01.438Z,62.00
2018-08-10T13:20:30.729Z,62.10
2018-08-10T13:23:00.092Z,63.00
2018-08-10T13:25:29.570Z,64.10
2018-08-10T13:27:58.962Z,64.70
2018-08-10T13:30:28.349Z,66.20
2018-08-10T13:32:57.816Z,69.50
2018-08-10T13:35:27.381Z,72.40
2018-08-10T13:37:56.640Z,75.00
2018-08-10T13:40:25.943Z,76.10
2018-08-10T13:42:55.263Z,77.90
2018-08-10T13:45:24.570Z,80.00
2018-08-10T13:47:53.947Z,80.20
2018-08-10T13:50:23.198Z,80.90
2018-08-10T13:52:52.638Z,83.50
2018-08-10T13:55:22.100Z,81.70
2018-08-10T13:57:51.489Z,84.80
2018-08-10T14:00:23.988Z,87.40
2018-08-10T14:02:54.829Z,87.90
2018-08-10T14:05:24.950Z,88.60
2018-08-10T14:07:54.853Z,88.60
2018-08-10T14:10:24.288Z,88.40
2018-08-10T14:12:53.616Z,89.80
2018-08-10T14:15:22.902Z,90.40
2018-08-10T14:17:52.185Z,91.20
2018-08-10T14:20:21.506Z,92.70
2018-08-10T14:22:50.968Z,94.20
2018-08-10T14:25:20.246Z,93.40
2018-08-10T14:27:49.631Z,94.60
2018-08-10T14:30:19.058Z,92.60
2018-08-10T14:32:48.454Z,93.20
2018-08-10T14:35:17.748Z,92.10
2018-08-10T14:37:47.084Z,93.40
2018-08-10T14:40:16.650Z,91.90
2018-08-10T14:42:45.922Z,93.50
2018-08-10T14:45:16.349Z,91.80
2018-08-10T14:47:45.757Z,91.20
2018-08-10T14:50:15.969Z,92.10
2018-08-10T14:52:45.394Z,92.30
2018-08-10T14:55:16.020Z,94.00
2018-08-10T14:57:45.426Z,93.10
2018-08-10T15:00:17.507Z,92.00
2018-08-10T15:02:47.225Z,91.20
2018-08-10T15:05:16.742Z,91.80
2018-08-10T15:07:46.256Z,91.80
2018-08-10T15:10:16.812Z,93.00
2018-08-10T15:12:47.551Z,93.90
2018-08-10T15:15:18.149Z,92.20
2018-08-10T15:17:47.817Z,92.10
2018-08-10T15:20:18.881Z,93.50
2018-08-10T15:22:48.186Z,93.00
2018-08-10T15:25:17.489Z,93.30
2018-08-10T15:27:46.922Z,90.60
2018-08-10T15:30:17.996Z,92.20
2018-08-10T15:32:47.355Z,90.90
2018-08-10T15:35:17.640Z,90.90
2018-08-10T15:37:47.226Z,88.40
2018-08-10T15:40:18.292Z,91.80
2018-08-10T15:42:47.663Z,91.50
2018-08-10T15:45:17.917Z,89.20
2018-08-10T15:47:47.944Z,90.90
2018-08-10T15:50:17.361Z,90.40
2018-08-10T15:52:46.862Z,89.80
2018-08-10T15:55:16.589Z,90.90
2018-08-10T15:57:45.968Z,90.50
2018-08-10T16:00:19.079Z,89.40
2018-08-10T16:02:48.925Z,85.90
2018-08-10T16:05:18.261Z,87.50
2018-08-10T16:07:47.699Z,88.20
2018-08-10T16:10:17.155Z,85.60
2018-08-10T16:12:46.546Z,86.40
2018-08-10T16:15:18.118Z,90.80
2018-08-10T16:17:47.672Z,88.50
2018-08-10T16:20:19.727Z,85.50
2018-08-10T16:22:49.301Z,85.70
2018-08-10T16:25:18.720Z,84.70
2018-08-10T16:27:48.225Z,82.40
2018-08-10T16:30:18.294Z,76.90
2018-08-10T16:32:47.653Z,81.40
2018-08-10T16:35:17.215Z,73.90
2018-08-10T16:37:47.385Z,78.50
2018-08-10T16:40:18.098Z,76.90
2018-08-10T16:42:47.635Z,74.70
2018-08-10T16:45:17.112Z,73.60
2018-08-10T16:47:47.219Z,70.50
2018-08-10T16:50:19.461Z,71.40
2018-08-10T16:52:49.002Z,69.90
2018-08-10T16:55:19.839Z,70.70
2018-08-10T16:57:49.796Z,71.70
2018-08-10T17:00:20.650Z,72.30
2018-08-10T17:02:50.034Z,70.30
2018-08-10T17:05:19.463Z,70.70
2018-08-10T17:07:48.761Z,74.80
2018-08-10T17:10:18.364Z,67.60
2018-08-10T17:12:47.691Z,68.20
2018-08-10T17:15:47.197Z,67.40
2018-08-10T17:18:16.530Z,66.90
2018-08-10T17:20:45.847Z,66.00
2018-08-10T17:23:15.234Z,69.90
2018-08-10T17:25:44.566Z,66.30
2018-08-10T17:28:13.906Z,66.10
2018-08-10T17:30:43.465Z,65.10
2018-08-10T17:33:13.118Z,64.20
2018-08-10T17:35:42.410Z,68.70
2018-08-10T17:38:11.825Z,65.00
2018-08-10T17:40:41.139Z,65.10
2018-08-10T17:43:10.390Z,68.10
2018-08-10T17:45:39.815Z,66.40
2018-08-10T17:48:09.128Z,66.40
2018-08-10T17:50:38.338Z,68.00
2018-08-10T17:53:08.225Z,68.20
2018-08-10T17:55:37.460Z,66.80
2018-08-10T17:58:07.731Z,68.40
2018-08-10T18:00:37.084Z,65.50
2018-08-10T18:03:06.492Z,63.60
2018-08-10T18:05:36.826Z,61.40
2018-08-10T18:08:06.270Z,63.70
2018-08-10T18:10:35.580Z,57.10
2018-08-10T18:13:04.973Z,56.90
2018-08-10T18:15:34.309Z,57.50
2018-08-10T18:18:03.707Z,57.00
2018-08-10T18:20:33.094Z,63.40
2018-08-10T18:23:02.475Z,58.80
2018-08-10T18:25:31.783Z,58.60
2018-08-10T18:28:00.987Z,60.60
2018-08-10T18:30:30.274Z,59.40
2018-08-10T18:32:59.551Z,58.20
2018-08-10T18:35:28.895Z,63.90
2018-08-10T18:37:58.262Z,62.40
2018-08-10T18:40:27.824Z,64.20
2018-08-10T18:42:57.246Z,65.10
2018-08-10T18:45:26.628Z,65.90
2018-08-10T18:47:56.094Z,68.20
2018-08-10T18:50:25.486Z,68.90
2018-08-10T18:52:54.804Z,70.00
2018-08-10T18:55:24.512Z,71.20
2018-08-10T18:57:54.018Z,71.70
2018-08-10T19:00:26.761Z,72.70
2018-08-10T19:02:56.806Z,73.60
2018-08-10T19:05:26.124Z,73.70
2018-08-10T19:07:55.563Z,75.70
2018-08-10T19:10:28.072Z,76.90
2018-08-10T19:12:57.427Z,77.90
2018-08-10T19:15:26.784Z,79.10
2018-08-10T19:17:56.218Z,81.10
2018-08-10T19:20:25.564Z,82.10
2018-08-10T19:22:54.871Z,82.90
2018-08-10T19:25:24.122Z,83.70
2018-08-10T19:27:53.570Z,85.20
2018-08-10T19:30:24.214Z,85.40
2018-08-10T19:32:53.763Z,85.90
2018-08-10T19:35:23.133Z,85.70
2018-08-10T19:37:52.458Z,87.30
2018-08-10T19:40:21.837Z,87.50
2018-08-10T19:42:51.179Z,87.90
2018-08-10T19:45:20.514Z,88.10
2018-08-10T19:47:49.815Z,88.50
2018-08-10T19:50:22.399Z,88.80
2018-08-10T19:52:51.922Z,89.20
2018-08-10T19:55:21.232Z,89.30
2018-08-10T19:57:50.514Z,89.40
2018-08-10T20:00:19.982Z,89.60
2018-08-10T20:02:50.544Z,88.80
2018-08-10T20:05:19.893Z,88.30
2018-08-10T20:07:49.302Z,88.90
2018-08-10T20:10:18.656Z,88.80
2018-08-10T20:12:48.059Z,89.20
2018-08-10T20:15:18.593Z,88.70
2018-08-10T20:17:47.906Z,87.70
2018-08-10T20:20:18.870Z,88.50
2018-08-10T20:22:48.396Z,88.30
2018-08-10T20:25:17.924Z,88.70
2018-08-10T20:27:47.269Z,88.60
2018-08-10T20:30:18.402Z,89.30
2018-08-10T20:32:48.653Z,89.20
2018-08-10T20:35:19.447Z,88.70
2018-08-10T20:37:49.065Z,89.60
2018-08-10T20:40:19.763Z,89.50
2018-08-10T20:42:49.853Z,89.70
2018-08-10T20:45:20.086Z,89.70
2018-08-10T20:47:49.646Z,90.10
2018-08-10T20:50:22.230Z,90.20
2018-08-10T20:52:51.817Z,90.40
2018-08-10T20:55:21.466Z,90.50
2018-08-10T20:57:51.023Z,90.60
2018-08-10T21:00:21.434Z,90.90
2018-08-10T21:02:51.004Z,91.20
2018-08-10T21:05:21.554Z,91.20
2018-08-10T21:07:51.122Z,91.40
2018-08-10T21:10:20.654Z,91.40
2018-08-10T21:12:50.218Z,91.30
2018-08-10T21:15:19.617Z,90.40
2018-08-10T21:17:49.302Z,90.20
2018-08-10T21:20:19.378Z,90.10
2018-08-10T21:22:48.915Z,87.80
2018-08-10T21:25:18.278Z,87.00
2018-08-10T21:27:47.800Z,86.70
2018-08-10T21:30:19.947Z,87.30
